Aviation Digital Data Service (ADDS)

Output produced by METARs form (0803 UTC 03 August 2021)
found at http://www.aviationweather.gov/metar/data/
 
KUNV 030755Z AUTO 00000KT 10SM SCT070 SCT080 12/12 A3013 RMK AO2 T01230118
KUNV 030735Z AUTO 00000KT 10SM CLR 12/12 A3014 RMK AO2 T01240120
KUNV 030715Z AUTO 00000KT 10SM SCT070 SCT085 12/12 A3014 RMK AO2 T01180116
KUNV 030655Z AUTO 00000KT 10SM CLR 13/12 A3014 RMK AO2 T01300120
KUNV 030635Z AUTO 00000KT 10SM SCT070 SCT090 14/12 A3014 RMK AO2 T01350118
KUNV 030615Z AUTO 00000KT 10SM SCT070 SCT090 13/12 A3014 RMK AO2 T01330117
KUNV 030555Z AUTO 00000KT 10SM SCT070 SCT080 SCT110 14/12 A3014 RMK AO2 T01390115 10221 20138
KUNV 030535Z AUTO 00000KT 10SM SCT070 SCT110 14/12 A3014 RMK AO2 T01400115
KUNV 030515Z AUTO 00000KT 10SM SCT070 SCT075 SCT090 14/12 A3015 RMK AO2 T01390121
KUNV 030455Z AUTO 00000KT 10SM BKN070 BKN080 14/13 A3015 RMK AO2 T01400126
KUNV 030435Z AUTO 00000KT 10SM OVC070 15/12 A3015 RMK AO2 T01510120
KUNV 030415Z AUTO 00000KT 10SM BKN070 15/12 A3014 RMK AO2 T01500115
KUNV 030355Z AUTO 00000KT 10SM SCT070 SCT080 15/12 A3014 RMK AO2 T01470117
KUNV 030335Z AUTO 00000KT 10SM SCT070 SCT080 SCT090 15/12 A3013 RMK AO2 T01480120
KUNV 030315Z AUTO 00000KT 10SM SCT070 SCT085 15/12 A3013 RMK AO2 T01520119
KUNV 030255Z AUTO 00000KT 10SM SCT070 SCT085 17/12 A3012 RMK AO2 T01670120
KUNV 030235Z AUTO 00000KT 10SM SCT070 SCT085 16/12 A3012 RMK AO2 T01610116
KUNV 030215Z AUTO 00000KT 10SM SCT085 16/12 A3011 RMK AO2 T01630115
KUNV 030153Z 00000KT 10SM SCT075 SCT095 18/11 A3011
KUNV 030053Z 00000KT 10SM SCT090 19/11 A3010
KUNV 022353Z 00000KT 10SM FEW065 SCT085 22/10 A3009
KUNV 022253Z 34004KT 10SM SCT065 SCT085 23/09 A3008
KUNV 022153Z 35005KT 10SM SCT065 SCT085 24/09 A3008
KUNV 022053Z 35005KT 10SM BKN060 24/09 A3007
KUNV 021953Z 35005KT 10SM BKN060 24/10 A3007
KUNV 021853Z 34009KT 310V020 10SM BKN065 23/09 A3008
KUNV 021753Z 01008KT 10SM BKN050 23/10 A3009
KUNV 021653Z 02008KT 10SM SCT040 22/12 A3010
KUNV 021553Z VRB04KT 10SM SCT039 SCT048 21/13 A3010
KUNV 021453Z VRB04KT 10SM BKN028 20/13 A3010
KUNV 021353Z 30005KT 10SM BKN025 18/13 A3009
KUNV 021253Z 29003KT 10SM SCT020 SCT028 16/13 A3007
KUNV 021153Z 00000KT 10SM BKN018 14/14 A3006
KUNV 021053Z 00000KT 10SM BKN016 14/14 A3003
KUNV 020953Z 00000KT 10SM BKN018 13/13 A3001
KUNV 020935Z AUTO 00000KT 7SM CLR 13/13 A3000 RMK AO2 T01250125
KUNV 020915Z AUTO 00000KT 10SM CLR 13/13 A2999 RMK AO2 T01300130
KUNV 020855Z AUTO 00000KT 10SM SCT070 SCT085 13/13 A2999 RMK AO2 T01270127
KUNV 020835Z AUTO 00000KT 1SM BR VV007 13/13 A2999 RMK AO2 T01250125
KUNV 020815Z AUTO 00000KT 2 1/2SM BR CLR 13/13 A2998 RMK AO2 VIS 1V5 T01270127
KUNV 020755Z AUTO 00000KT 10SM CLR 14/13 A2997 RMK AO2 T01390130
KUNV 020735Z AUTO 00000KT 10SM CLR 14/14 A2997 RMK AO2 T01410136
KUNV 020715Z AUTO 00000KT 7SM SCT060 SCT090 SCT110 14/14 A2997 RMK AO2 T01390139
KUNV 020655Z AUTO 00000KT 7SM SCT050 SCT060 SCT090 14/14 A2997 RMK AO2 T01390139
KUNV 020635Z AUTO 00000KT 4SM BR SCT060 SCT080 SCT090 14/14 A2996 RMK AO2 T01390139
KUNV 020615Z AUTO 00000KT 10SM SCT048 SCT060 SCT070 14/14 A2996 RMK AO2 T01430143
KUNV 020555Z AUTO 00000KT 10SM SCT050 SCT070 BKN085 14/14 A2996 RMK AO2 T01430143 10171 20143
KUNV 020535Z AUTO 00000KT 10SM SCT050 SCT065 BKN075 15/15 A2996 RMK AO2 T01450145
KUNV 020515Z AUTO 00000KT 10SM SCT055 SCT075 SCT085 15/15 A2996 RMK AO2 T01450145
KUNV 020455Z AUTO 24006KT 10SM SCT049 SCT065 SCT080 15/15 A2996 RMK AO2 T01460146
KUNV 020435Z AUTO 22005KT 7SM SCT065 SCT085 15/15 A2995 RMK AO2 T01460146
KUNV 020415Z AUTO 20004KT 7SM SCT017 SCT055 SCT065 15/15 A2995 RMK AO2 T01500150
KUNV 020355Z AUTO 20005KT 10SM SCT017 SCT060 SCT065 16/16 A2995 RMK AO2 T01550155
KUNV 020335Z AUTO 21004KT 10SM SCT060 SCT080 SCT090 16/16 A2995 RMK AO2 T01550155
KUNV 020315Z AUTO 22005KT 10SM CLR 16/16 A2995 RMK AO2 LTG DSNT NW T01560156
KUNV 020255Z AUTO 21003KT 10SM SCT060 SCT085 15/15 A2995 RMK AO2 T01540154
KUNV 020235Z AUTO 22004KT 7SM CLR 15/15 A2994 RMK AO2 T01530153
KUNV 020215Z AUTO 25004KT 10SM SCT090 16/16 A2994 RMK AO2 LTG DSNT N T01640160
KUNV 020153Z 28004KT 6SM BR SCT020 SCT085 16/16 A2994
KUNV 020053Z 00000KT 8SM SCT010 SCT060 SCT100 16/16 A2991
KUNV 012353Z 00000KT 8SM SCT010 SCT040 BKN065 17/17 A2989
KUNV 012253Z COR 00000KT 7SM -DZ BR SCT010 SCT040 BKN060 BKN100 17/16 A2988
KUNV 012153Z VRB05KT 8SM BKN045 OVC090 17/16 A2988
KUNV 012110Z 33010KT 8SM SCT015 BKN055 BKN090 17/15 A2988 RMK LTG DSNT SE TSE2110
KUNV 012053Z 33008G16KT 7SM -TSRA BR SCT013 BKN038 BKN065 17/15 A2987 RMK OCNL LTGCG SE TS SE MOV E VIS E-SE 3SM
KUNV 012043Z COR 33013G33KT 5SM -TSRA BR SCT013 BKN029 BKN055 17/15 A2987 RMK TSB2043 OCNL LTGCG S TS S MOV E
KUNV 012037Z 32019G33KT 3SM +RA BR SCT026 BKN040 BKN070 22/13 A2988
KUNV 012029Z 32016G24KT 8SM VCSH BKN050 BKN070 25/14 A2984 RMK WSHFT SHRA W MOV E
KUNV 030524Z 0306/0406 00000KT P6SM SKC 
     FM031500 14005KT P6SM BKN100 
     FM040000 14004KT P6SM OVC060